sensor_id;sensor_type;location;lat;lon;timestamp;P1;durP1;ratioP1;P2;durP2;ratioP2
18544;SDS011;9402;51.460;7.276;2023-06-10T00:01:30;9.87;;;6.87;;
18544;SDS011;9402;51.460;7.276;2023-06-10T00:03:33;8.50;;;7.07;;
18544;SDS011;9402;51.460;7.276;2023-06-10T00:05:34;8.83;;;7.90;;
18544;SDS011;9402;51.460;7.276;2023-06-10T00:07:38;10.93;;;7.23;;
18544;SDS011;9402;51.460;7.276;2023-06-10T00:09:41;11.73;;;7.70;;
18544;SDS011;9402;51.460;7.276;2023-06-10T00:11:42;10.83;;;7.33;;
18544;SDS011;9402;51.460;7.276;2023-06-10T00:13:45;10.27;;;7.37;;
18544;SDS011;9402;51.460;7.276;2023-06-10T00:15:47;8.67;;;6.83;;
18544;SDS011;9402;51.460;7.276;2023-06-10T00:17:48;9.37;;;8.10;;
18544;SDS011;9402;51.460;7.276;2023-06-10T00:19:52;11.00;;;7.33;;
18544;SDS011;9402;51.460;7.276;2023-06-10T00:21:55;10.83;;;8.27;;
18544;SDS011;9402;51.460;7.276;2023-06-10T00:23:57;11.03;;;7.37;;
18544;SDS011;9402;51.460;7.276;2023-06-10T00:26:03;9.30;;;8.17;;
18544;SDS011;9402;51.460;7.276;2023-06-10T00:28:04;10.47;;;7.97;;
18544;SDS011;9402;51.460;7.276;2023-06-10T00:30:08;9.93;;;7.97;;
18544;SDS011;9402;51.460;7.276;2023-06-10T00:32:10;8.93;;;8.00;;
18544;SDS011;9402;51.460;7.276;2023-06-10T00:34:12;13.03;;;8.67;;
18544;SDS011;9402;51.460;7.276;2023-06-10T00:36:13;10.90;;;8.63;;
18544;SDS011;9402;51.460;7.276;2023-06-10T00:38:15;10.87;;;8.53;;
18544;SDS011;9402;51.460;7.276;2023-06-10T00:40:17;11.47;;;7.53;;
18544;SDS011;9402;51.460;7.276;2023-06-10T00:42:18;9.97;;;8.90;;
18544;SDS011;9402;51.460;7.276;2023-06-10T00:44:22;11.23;;;8.40;;
18544;SDS011;9402;51.460;7.276;2023-06-10T00:46:25;12.63;;;8.37;;
18544;SDS011;9402;51.460;7.276;2023-06-10T00:48:27;11.07;;;8.70;;
18544;SDS011;9402;51.460;7.276;2023-06-10T00:50:29;8.23;;;7.43;;
18544;SDS011;9402;51.460;7.276;2023-06-10T00:52:31;9.40;;;8.40;;
18544;SDS011;9402;51.460;7.276;2023-06-10T00:54:33;8.93;;;7.70;;
18544;SDS011;9402;51.460;7.276;2023-06-10T00:56:34;10.43;;;9.00;;
18544;SDS011;9402;51.460;7.276;2023-06-10T00:58:37;10.60;;;9.50;;
18544;SDS011;9402;51.460;7.276;2023-06-10T01:00:39;11.10;;;8.30;;
18544;SDS011;9402;51.460;7.276;2023-06-10T01:02:42;17.83;;;8.93;;
18544;SDS011;9402;51.460;7.276;2023-06-10T01:04:43;13.23;;;8.60;;
18544;SDS011;9402;51.460;7.276;2023-06-10T01:06:48;11.97;;;8.83;;
18544;SDS011;9402;51.460;7.276;2023-06-10T01:08:59;11.87;;;8.87;;
18544;SDS011;9402;51.460;7.276;2023-06-10T01:11:06;12.50;;;9.03;;
18544;SDS011;9402;51.460;7.276;2023-06-10T01:13:09;11.07;;;9.10;;
18544;SDS011;9402;51.460;7.276;2023-06-10T01:15:12;10.50;;;8.20;;
18544;SDS011;9402;51.460;7.276;2023-06-10T01:17:14;13.10;;;9.00;;
18544;SDS011;9402;51.460;7.276;2023-06-10T01:19:19;14.73;;;8.27;;
18544;SDS011;9402;51.460;7.276;2023-06-10T01:21:25;11.00;;;9.47;;
18544;SDS011;9402;51.460;7.276;2023-06-10T01:23:27;13.73;;;9.63;;
18544;SDS011;9402;51.460;7.276;2023-06-10T01:25:28;12.77;;;9.97;;
18544;SDS011;9402;51.460;7.276;2023-06-10T01:27:33;15.27;;;9.30;;
18544;SDS011;9402;51.460;7.276;2023-06-10T01:29:41;14.77;;;9.60;;
18544;SDS011;9402;51.460;7.276;2023-06-10T01:31:48;10.20;;;8.50;;
18544;SDS011;9402;51.460;7.276;2023-06-10T01:33:51;12.97;;;9.00;;
18544;SDS011;9402;51.460;7.276;2023-06-10T01:35:54;20.87;;;9.60;;
18544;SDS011;9402;51.460;7.276;2023-06-10T01:37:59;15.10;;;10.30;;
18544;SDS011;9402;51.460;7.276;2023-06-10T01:40:02;13.27;;;9.60;;
18544;SDS011;9402;51.460;7.276;2023-06-10T01:42:06;10.60;;;9.43;;
18544;SDS011;9402;51.460;7.276;2023-06-10T01:44:08;12.27;;;9.77;;
18544;SDS011;9402;51.460;7.276;2023-06-10T01:46:10;11.70;;;9.47;;
18544;SDS011;9402;51.460;7.276;2023-06-10T01:48:11;16.73;;;10.73;;
18544;SDS011;9402;51.460;7.276;2023-06-10T01:50:13;12.87;;;9.53;;
18544;SDS011;9402;51.460;7.276;2023-06-10T01:52:15;14.77;;;9.50;;
18544;SDS011;9402;51.460;7.276;2023-06-10T01:54:18;14.07;;;9.70;;
18544;SDS011;9402;51.460;7.276;2023-06-10T01:56:19;12.87;;;10.90;;
18544;SDS011;9402;51.460;7.276;2023-06-10T01:58:21;14.77;;;10.30;;
18544;SDS011;9402;51.460;7.276;2023-06-10T02:00:23;11.07;;;8.97;;
18544;SDS011;9402;51.460;7.276;2023-06-10T02:02:24;14.33;;;10.70;;
18544;SDS011;9402;51.460;7.276;2023-06-10T02:04:26;12.70;;;10.60;;
18544;SDS011;9402;51.460;7.276;2023-06-10T02:06:28;15.50;;;9.63;;
18544;SDS011;9402;51.460;7.276;2023-06-10T02:08:30;20.33;;;10.23;;
18544;SDS011;9402;51.460;7.276;2023-06-10T02:10:33;18.67;;;11.03;;
18544;SDS011;9402;51.460;7.276;2023-06-10T02:12:34;25.30;;;9.53;;
18544;SDS011;9402;51.460;7.276;2023-06-10T02:14:36;12.80;;;10.07;;
18544;SDS011;9402;51.460;7.276;2023-06-10T02:16:37;13.70;;;9.60;;
18544;SDS011;9402;51.460;7.276;2023-06-10T02:18:40;12.50;;;10.00;;
18544;SDS011;9402;51.460;7.276;2023-06-10T02:20:43;17.30;;;10.20;;
18544;SDS011;9402;51.460;7.276;2023-06-10T02:22:45;10.23;;;8.77;;
18544;SDS011;9402;51.460;7.276;2023-06-10T02:24:47;11.40;;;10.10;;
18544;SDS011;9402;51.460;7.276;2023-06-10T02:26:50;14.33;;;10.10;;
18544;SDS011;9402;51.460;7.276;2023-06-10T02:28:51;14.67;;;11.03;;
18544;SDS011;9402;51.460;7.276;2023-06-10T02:30:53;18.03;;;10.40;;
18544;SDS011;9402;51.460;7.276;2023-06-10T02:32:55;17.83;;;10.80;;
18544;SDS011;9402;51.460;7.276;2023-06-10T02:34:56;17.63;;;10.37;;
18544;SDS011;9402;51.460;7.276;2023-06-10T02:37:00;16.47;;;10.77;;
18544;SDS011;9402;51.460;7.276;2023-06-10T02:39:02;13.53;;;10.33;;
18544;SDS011;9402;51.460;7.276;2023-06-10T02:41:04;16.67;;;12.70;;
18544;SDS011;9402;51.460;7.276;2023-06-10T02:43:07;14.87;;;10.23;;
18544;SDS011;9402;51.460;7.276;2023-06-10T02:45:09;21.73;;;10.50;;
18544;SDS011;9402;51.460;7.276;2023-06-10T02:47:10;18.00;;;12.10;;
18544;SDS011;9402;51.460;7.276;2023-06-10T02:49:12;15.30;;;11.10;;
18544;SDS011;9402;51.460;7.276;2023-06-10T02:51:13;14.00;;;10.40;;
18544;SDS011;9402;51.460;7.276;2023-06-10T02:53:15;15.00;;;11.77;;
18544;SDS011;9402;51.460;7.276;2023-06-10T02:55:17;14.80;;;11.00;;
18544;SDS011;9402;51.460;7.276;2023-06-10T02:57:18;12.40;;;10.70;;
18544;SDS011;9402;51.460;7.276;2023-06-10T02:59:21;14.53;;;11.80;;
18544;SDS011;9402;51.460;7.276;2023-06-10T03:01:23;15.70;;;10.53;;
18544;SDS011;9402;51.460;7.276;2023-06-10T03:03:24;17.23;;;11.43;;
18544;SDS011;9402;51.460;7.276;2023-06-10T03:05:27;18.47;;;12.57;;
18544;SDS011;9402;51.460;7.276;2023-06-10T03:07:29;17.17;;;12.80;;
18544;SDS011;9402;51.460;7.276;2023-06-10T03:09:31;17.63;;;12.97;;
18544;SDS011;9402;51.460;7.276;2023-06-10T03:11:32;15.40;;;11.53;;
18544;SDS011;9402;51.460;7.276;2023-06-10T03:13:34;15.83;;;12.03;;
18544;SDS011;9402;51.460;7.276;2023-06-10T03:15:37;18.00;;;12.17;;
18544;SDS011;9402;51.460;7.276;2023-06-10T03:17:40;17.23;;;11.80;;
18544;SDS011;9402;51.460;7.276;2023-06-10T03:19:42;13.50;;;12.07;;
18544;SDS011;9402;51.460;7.276;2023-06-10T03:21:44;17.03;;;12.60;;
18544;SDS011;9402;51.460;7.276;2023-06-10T03:23:46;17.17;;;11.80;;
18544;SDS011;9402;51.460;7.276;2023-06-10T03:25:47;13.53;;;11.00;;
18544;SDS011;9402;51.460;7.276;2023-06-10T03:27:49;30.83;;;13.70;;
18544;SDS011;9402;51.460;7.276;2023-06-10T03:29:51;20.53;;;12.87;;
18544;SDS011;9402;51.460;7.276;2023-06-10T03:31:54;15.97;;;12.57;;
18544;SDS011;9402;51.460;7.276;2023-06-10T03:33:55;13.87;;;12.33;;
18544;SDS011;9402;51.460;7.276;2023-06-10T03:35:58;14.70;;;12.50;;
18544;SDS011;9402;51.460;7.276;2023-06-10T03:38:00;16.83;;;12.63;;
18544;SDS011;9402;51.460;7.276;2023-06-10T03:40:01;16.67;;;13.70;;
18544;SDS011;9402;51.460;7.276;2023-06-10T03:42:04;23.73;;;14.80;;
18544;SDS011;9402;51.460;7.276;2023-06-10T03:44:07;16.80;;;13.80;;
18544;SDS011;9402;51.460;7.276;2023-06-10T03:46:08;15.03;;;12.80;;
18544;SDS011;9402;51.460;7.276;2023-06-10T03:48:11;17.10;;;14.67;;
18544;SDS011;9402;51.460;7.276;2023-06-10T03:50:13;20.50;;;13.20;;
18544;SDS011;9402;51.460;7.276;2023-06-10T03:52:15;17.13;;;13.17;;
18544;SDS011;9402;51.460;7.276;2023-06-10T03:54:16;14.17;;;11.97;;
18544;SDS011;9402;51.460;7.276;2023-06-10T03:56:18;18.10;;;13.20;;
18544;SDS011;9402;51.460;7.276;2023-06-10T03:58:19;15.30;;;12.77;;
18544;SDS011;9402;51.460;7.276;2023-06-10T04:00:21;19.10;;;13.80;;
18544;SDS011;9402;51.460;7.276;2023-06-10T04:02:23;16.63;;;13.23;;
18544;SDS011;9402;51.460;7.276;2023-06-10T04:04:26;17.87;;;15.00;;
18544;SDS011;9402;51.460;7.276;2023-06-10T04:06:28;26.33;;;15.97;;
18544;SDS011;9402;51.460;7.276;2023-06-10T04:08:29;19.80;;;14.87;;
18544;SDS011;9402;51.460;7.276;2023-06-10T04:10:32;18.90;;;14.77;;
18544;SDS011;9402;51.460;7.276;2023-06-10T04:12:34;19.90;;;14.97;;
18544;SDS011;9402;51.460;7.276;2023-06-10T04:14:36;24.10;;;15.00;;
18544;SDS011;9402;51.460;7.276;2023-06-10T04:16:37;16.33;;;13.77;;
18544;SDS011;9402;51.460;7.276;2023-06-10T04:18:39;22.97;;;14.50;;
18544;SDS011;9402;51.460;7.276;2023-06-10T04:20:43;25.97;;;15.17;;
18544;SDS011;9402;51.460;7.276;2023-06-10T04:22:45;23.07;;;15.80;;
18544;SDS011;9402;51.460;7.276;2023-06-10T04:24:47;22.87;;;15.30;;
18544;SDS011;9402;51.460;7.276;2023-06-10T04:26:48;22.27;;;15.53;;
18544;SDS011;9402;51.460;7.276;2023-06-10T04:28:50;19.67;;;14.93;;
18544;SDS011;9402;51.460;7.276;2023-06-10T04:30:51;17.30;;;14.50;;
18544;SDS011;9402;51.460;7.276;2023-06-10T04:32:53;23.07;;;16.00;;
18544;SDS011;9402;51.460;7.276;2023-06-10T04:34:54;21.03;;;14.23;;
18544;SDS011;9402;51.460;7.276;2023-06-10T04:36:57;20.13;;;14.50;;
18544;SDS011;9402;51.460;7.276;2023-06-10T04:38:59;27.30;;;13.40;;
18544;SDS011;9402;51.460;7.276;2023-06-10T04:41:01;17.50;;;13.60;;
18544;SDS011;9402;51.460;7.276;2023-06-10T04:43:03;19.63;;;15.43;;
18544;SDS011;9402;51.460;7.276;2023-06-10T04:45:05;20.17;;;13.47;;
18544;SDS011;9402;51.460;7.276;2023-06-10T04:47:07;17.10;;;13.70;;
18544;SDS011;9402;51.460;7.276;2023-06-10T04:49:09;20.90;;;14.63;;
18544;SDS011;9402;51.460;7.276;2023-06-10T04:51:11;18.40;;;12.70;;
18544;SDS011;9402;51.460;7.276;2023-06-10T04:53:14;19.10;;;14.07;;
18544;SDS011;9402;51.460;7.276;2023-06-10T04:55:16;17.43;;;14.37;;
18544;SDS011;9402;51.460;7.276;2023-06-10T04:57:18;15.53;;;13.87;;
18544;SDS011;9402;51.460;7.276;2023-06-10T04:59:20;18.10;;;12.40;;
18544;SDS011;9402;51.460;7.276;2023-06-10T05:01:21;18.63;;;12.70;;
18544;SDS011;9402;51.460;7.276;2023-06-10T05:03:23;15.50;;;12.10;;
18544;SDS011;9402;51.460;7.276;2023-06-10T05:05:25;17.40;;;12.40;;
18544;SDS011;9402;51.460;7.276;2023-06-10T05:07:26;16.17;;;12.03;;
18544;SDS011;9402;51.460;7.276;2023-06-10T05:09:29;12.33;;;10.50;;
18544;SDS011;9402;51.460;7.276;2023-06-10T05:11:31;18.83;;;12.13;;
18544;SDS011;9402;51.460;7.276;2023-06-10T05:13:33;15.57;;;12.23;;
18544;SDS011;9402;51.460;7.276;2023-06-10T05:15:34;16.83;;;12.00;;
18544;SDS011;9402;51.460;7.276;2023-06-10T05:17:37;16.43;;;11.47;;
18544;SDS011;9402;51.460;7.276;2023-06-10T05:19:38;17.13;;;10.70;;
18544;SDS011;9402;51.460;7.276;2023-06-10T05:21:41;12.53;;;10.20;;
18544;SDS011;9402;51.460;7.276;2023-06-10T05:23:43;14.60;;;9.83;;
18544;SDS011;9402;51.460;7.276;2023-06-10T05:25:46;14.50;;;10.70;;
18544;SDS011;9402;51.460;7.276;2023-06-10T05:27:48;12.07;;;10.40;;
18544;SDS011;9402;51.460;7.276;2023-06-10T05:29:49;13.10;;;9.97;;
18544;SDS011;9402;51.460;7.276;2023-06-10T05:31:51;18.17;;;9.93;;
18544;SDS011;9402;51.460;7.276;2023-06-10T05:33:53;14.30;;;10.73;;
18544;SDS011;9402;51.460;7.276;2023-06-10T05:35:55;15.03;;;10.67;;
18544;SDS011;9402;51.460;7.276;2023-06-10T05:37:56;10.50;;;9.23;;
18544;SDS011;9402;51.460;7.276;2023-06-10T05:39:58;11.90;;;9.70;;
18544;SDS011;9402;51.460;7.276;2023-06-10T05:42:01;21.60;;;10.20;;
18544;SDS011;9402;51.460;7.276;2023-06-10T05:44:03;10.03;;;8.37;;
18544;SDS011;9402;51.460;7.276;2023-06-10T05:46:04;12.93;;;9.67;;
18544;SDS011;9402;51.460;7.276;2023-06-10T05:48:06;15.00;;;8.83;;
18544;SDS011;9402;51.460;7.276;2023-06-10T05:50:08;13.77;;;8.90;;
18544;SDS011;9402;51.460;7.276;2023-06-10T05:52:10;12.77;;;9.10;;
18544;SDS011;9402;51.460;7.276;2023-06-10T05:54:12;10.50;;;8.00;;
18544;SDS011;9402;51.460;7.276;2023-06-10T05:56:13;14.93;;;9.23;;
18544;SDS011;9402;51.460;7.276;2023-06-10T05:58:16;14.63;;;9.33;;
18544;SDS011;9402;51.460;7.276;2023-06-10T06:00:18;11.40;;;8.50;;
18544;SDS011;9402;51.460;7.276;2023-06-10T06:02:20;13.97;;;8.43;;
18544;SDS011;9402;51.460;7.276;2023-06-10T06:04:22;11.50;;;8.20;;
18544;SDS011;9402;51.460;7.276;2023-06-10T06:06:23;10.53;;;7.70;;
18544;SDS011;9402;51.460;7.276;2023-06-10T06:08:25;14.03;;;8.97;;
18544;SDS011;9402;51.460;7.276;2023-06-10T06:10:27;9.70;;;8.23;;
18544;SDS011;9402;51.460;7.276;2023-06-10T06:12:28;12.90;;;8.80;;
18544;SDS011;9402;51.460;7.276;2023-06-10T06:14:31;18.87;;;8.97;;
18544;SDS011;9402;51.460;7.276;2023-06-10T06:16:33;9.70;;;7.10;;
18544;SDS011;9402;51.460;7.276;2023-06-10T06:18:34;15.33;;;8.60;;
18544;SDS011;9402;51.460;7.276;2023-06-10T06:20:36;13.30;;;7.20;;
18544;SDS011;9402;51.460;7.276;2023-06-10T06:22:38;9.40;;;7.60;;
18544;SDS011;9402;51.460;7.276;2023-06-10T06:24:39;11.43;;;8.27;;
18544;SDS011;9402;51.460;7.276;2023-06-10T06:26:41;16.10;;;8.07;;
18544;SDS011;9402;51.460;7.276;2023-06-10T06:28:42;8.07;;;7.13;;
18544;SDS011;9402;51.460;7.276;2023-06-10T06:30:45;11.40;;;8.60;;
18544;SDS011;9402;51.460;7.276;2023-06-10T06:32:47;17.13;;;7.60;;
18544;SDS011;9402;51.460;7.276;2023-06-10T06:34:49;58.67;;;10.23;;
18544;SDS011;9402;51.460;7.276;2023-06-10T06:36:54;15.70;;;7.83;;
18544;SDS011;9402;51.460;7.276;2023-06-10T06:38:55;13.50;;;8.00;;
18544;SDS011;9402;51.460;7.276;2023-06-10T06:40:58;17.20;;;7.63;;
18544;SDS011;9402;51.460;7.276;2023-06-10T06:43:03;13.90;;;7.67;;
18544;SDS011;9402;51.460;7.276;2023-06-10T06:45:05;11.30;;;7.73;;
18544;SDS011;9402;51.460;7.276;2023-06-10T06:47:08;11.80;;;8.10;;
18544;SDS011;9402;51.460;7.276;2023-06-10T06:49:10;14.60;;;7.70;;
18544;SDS011;9402;51.460;7.276;2023-06-10T06:51:12;9.23;;;7.37;;
18544;SDS011;9402;51.460;7.276;2023-06-10T06:53:13;13.50;;;7.13;;
18544;SDS011;9402;51.460;7.276;2023-06-10T06:55:15;10.37;;;6.90;;
18544;SDS011;9402;51.460;7.276;2023-06-10T06:57:16;9.97;;;6.70;;
18544;SDS011;9402;51.460;7.276;2023-06-10T06:59:18;10.20;;;7.37;;
18544;SDS011;9402;51.460;7.276;2023-06-10T07:01:20;9.43;;;7.10;;
18544;SDS011;9402;51.460;7.276;2023-06-10T07:03:23;9.50;;;6.83;;
18544;SDS011;9402;51.460;7.276;2023-06-10T07:05:24;11.80;;;7.37;;
18544;SDS011;9402;51.460;7.276;2023-06-10T07:07:27;13.93;;;7.50;;
18544;SDS011;9402;51.460;7.276;2023-06-10T07:09:28;11.40;;;6.80;;
18544;SDS011;9402;51.460;7.276;2023-06-10T07:11:30;9.77;;;6.90;;
18544;SDS011;9402;51.460;7.276;2023-06-10T07:13:32;11.63;;;7.13;;
18544;SDS011;9402;51.460;7.276;2023-06-10T07:15:33;11.47;;;7.13;;
18544;SDS011;9402;51.460;7.276;2023-06-10T07:17:35;11.03;;;6.57;;
18544;SDS011;9402;51.460;7.276;2023-06-10T07:19:38;10.83;;;6.30;;
18544;SDS011;9402;51.460;7.276;2023-06-10T07:21:39;7.67;;;6.47;;
18544;SDS011;9402;51.460;7.276;2023-06-10T07:23:41;10.10;;;6.63;;
18544;SDS011;9402;51.460;7.276;2023-06-10T07:25:43;14.13;;;7.23;;
18544;SDS011;9402;51.460;7.276;2023-06-10T07:27:45;13.83;;;6.20;;
18544;SDS011;9402;51.460;7.276;2023-06-10T07:29:47;7.30;;;5.80;;
18544;SDS011;9402;51.460;7.276;2023-06-10T07:31:48;8.80;;;6.70;;
18544;SDS011;9402;51.460;7.276;2023-06-10T07:33:50;11.50;;;7.30;;
18544;SDS011;9402;51.460;7.276;2023-06-10T07:35:53;8.30;;;6.47;;
18544;SDS011;9402;51.460;7.276;2023-06-10T07:37:54;13.27;;;7.10;;
18544;SDS011;9402;51.460;7.276;2023-06-10T07:39:56;10.27;;;6.20;;
18544;SDS011;9402;51.460;7.276;2023-06-10T07:41:57;12.60;;;6.97;;
18544;SDS011;9402;51.460;7.276;2023-06-10T07:43:59;15.50;;;6.20;;
18544;SDS011;9402;51.460;7.276;2023-06-10T07:46:01;7.37;;;6.30;;
18544;SDS011;9402;51.460;7.276;2023-06-10T07:48:02;8.07;;;5.90;;
18544;SDS011;9402;51.460;7.276;2023-06-10T07:50:04;9.90;;;6.67;;
18544;SDS011;9402;51.460;7.276;2023-06-10T07:52:08;7.33;;;6.33;;
18544;SDS011;9402;51.460;7.276;2023-06-10T07:54:10;12.20;;;5.67;;
18544;SDS011;9402;51.460;7.276;2023-06-10T07:56:12;11.17;;;7.00;;
18544;SDS011;9402;51.460;7.276;2023-06-10T07:58:13;13.33;;;7.10;;
18544;SDS011;9402;51.460;7.276;2023-06-10T08:00:15;8.40;;;6.23;;
18544;SDS011;9402;51.460;7.276;2023-06-10T08:02:17;7.80;;;7.00;;
18544;SDS011;9402;51.460;7.276;2023-06-10T08:04:19;11.90;;;7.30;;
18544;SDS011;9402;51.460;7.276;2023-06-10T08:06:20;16.90;;;6.50;;
18544;SDS011;9402;51.460;7.276;2023-06-10T08:08:23;10.07;;;5.67;;
18544;SDS011;9402;51.460;7.276;2023-06-10T08:10:25;9.63;;;6.03;;
18544;SDS011;9402;51.460;7.276;2023-06-10T08:12:27;11.80;;;6.33;;
18544;SDS011;9402;51.460;7.276;2023-06-10T08:14:28;8.10;;;5.93;;
18544;SDS011;9402;51.460;7.276;2023-06-10T08:16:30;8.83;;;5.80;;
18544;SDS011;9402;51.460;7.276;2023-06-10T08:18:31;6.07;;;5.23;;
18544;SDS011;9402;51.460;7.276;2023-06-10T08:20:33;11.90;;;6.03;;
18544;SDS011;9402;51.460;7.276;2023-06-10T08:22:35;9.97;;;5.23;;
18544;SDS011;9402;51.460;7.276;2023-06-10T08:24:38;10.60;;;5.80;;
18544;SDS011;9402;51.460;7.276;2023-06-10T08:26:40;8.73;;;6.03;;
18544;SDS011;9402;51.460;7.276;2023-06-10T08:28:41;7.63;;;5.23;;
18544;SDS011;9402;51.460;7.276;2023-06-10T08:30:43;8.97;;;5.33;;
18544;SDS011;9402;51.460;7.276;2023-06-10T08:32:44;9.83;;;5.53;;
18544;SDS011;9402;51.460;7.276;2023-06-10T08:34:46;10.87;;;5.23;;
18544;SDS011;9402;51.460;7.276;2023-06-10T08:36:48;9.40;;;5.67;;
18544;SDS011;9402;51.460;7.276;2023-06-10T08:38:53;11.70;;;5.23;;
18544;SDS011;9402;51.460;7.276;2023-06-10T08:40:56;9.10;;;5.93;;
18544;SDS011;9402;51.460;7.276;2023-06-10T08:43:02;9.47;;;5.10;;
18544;SDS011;9402;51.460;7.276;2023-06-10T08:45:07;9.47;;;6.40;;
18544;SDS011;9402;51.460;7.276;2023-06-10T08:47:13;9.57;;;5.03;;
18544;SDS011;9402;51.460;7.276;2023-06-10T08:49:17;10.57;;;6.43;;
18544;SDS011;9402;51.460;7.276;2023-06-10T08:51:20;9.23;;;5.53;;
18544;SDS011;9402;51.460;7.276;2023-06-10T08:53:24;6.87;;;5.23;;
18544;SDS011;9402;51.460;7.276;2023-06-10T08:55:29;8.87;;;4.87;;
18544;SDS011;9402;51.460;7.276;2023-06-10T08:57:33;11.40;;;5.77;;
18544;SDS011;9402;51.460;7.276;2023-06-10T08:59:35;9.83;;;6.03;;
18544;SDS011;9402;51.460;7.276;2023-06-10T09:01:38;6.77;;;5.27;;
18544;SDS011;9402;51.460;7.276;2023-06-10T09:03:39;6.07;;;4.97;;
18544;SDS011;9402;51.460;7.276;2023-06-10T09:05:42;12.33;;;5.70;;
18544;SDS011;9402;51.460;7.276;2023-06-10T09:07:45;6.40;;;5.80;;
18544;SDS011;9402;51.460;7.276;2023-06-10T09:09:48;13.30;;;5.87;;
18544;SDS011;9402;51.460;7.276;2023-06-10T09:11:53;10.30;;;5.07;;
18544;SDS011;9402;51.460;7.276;2023-06-10T09:13:56;7.37;;;5.67;;
18544;SDS011;9402;51.460;7.276;2023-06-10T09:15:57;7.90;;;5.03;;
18544;SDS011;9402;51.460;7.276;2023-06-10T09:18:01;7.40;;;5.43;;
18544;SDS011;9402;51.460;7.276;2023-06-10T09:20:05;11.03;;;5.60;;
18544;SDS011;9402;51.460;7.276;2023-06-10T09:22:08;6.33;;;5.40;;
18544;SDS011;9402;51.460;7.276;2023-06-10T09:24:10;8.20;;;5.40;;
18544;SDS011;9402;51.460;7.276;2023-06-10T09:26:12;7.73;;;5.67;;
18544;SDS011;9402;51.460;7.276;2023-06-10T09:28:14;6.80;;;5.20;;
18544;SDS011;9402;51.460;7.276;2023-06-10T09:30:27;6.43;;;5.63;;
18544;SDS011;9402;51.460;7.276;2023-06-10T09:32:30;7.73;;;5.13;;
18544;SDS011;9402;51.460;7.276;2023-06-10T09:34:31;12.63;;;5.23;;
18544;SDS011;9402;51.460;7.276;2023-06-10T09:36:33;8.13;;;5.03;;
18544;SDS011;9402;51.460;7.276;2023-06-10T09:38:35;10.97;;;6.10;;
18544;SDS011;9402;51.460;7.276;2023-06-10T09:40:40;8.60;;;5.73;;
18544;SDS011;9402;51.460;7.276;2023-06-10T09:42:52;9.80;;;5.50;;
18544;SDS011;9402;51.460;7.276;2023-06-10T09:44:56;7.27;;;6.07;;
18544;SDS011;9402;51.460;7.276;2023-06-10T09:46:59;10.90;;;5.43;;
18544;SDS011;9402;51.460;7.276;2023-06-10T09:49:00;7.00;;;5.50;;
18544;SDS011;9402;51.460;7.276;2023-06-10T09:51:02;11.90;;;5.63;;
18544;SDS011;9402;51.460;7.276;2023-06-10T09:53:03;18.00;;;6.00;;
18544;SDS011;9402;51.460;7.276;2023-06-10T09:55:08;6.80;;;5.00;;
18544;SDS011;9402;51.460;7.276;2023-06-10T09:57:11;6.57;;;4.90;;
18544;SDS011;9402;51.460;7.276;2023-06-10T09:59:12;7.23;;;5.20;;
18544;SDS011;9402;51.460;7.276;2023-06-10T10:01:14;7.80;;;5.20;;
18544;SDS011;9402;51.460;7.276;2023-06-10T10:03:23;6.13;;;5.30;;
18544;SDS011;9402;51.460;7.276;2023-06-10T10:05:24;13.47;;;5.90;;
18544;SDS011;9402;51.460;7.276;2023-06-10T10:07:26;12.73;;;5.57;;
18544;SDS011;9402;51.460;7.276;2023-06-10T10:09:27;9.00;;;5.53;;
18544;SDS011;9402;51.460;7.276;2023-06-10T10:11:29;6.70;;;5.63;;
18544;SDS011;9402;51.460;7.276;2023-06-10T10:13:33;17.33;;;5.30;;
18544;SDS011;9402;51.460;7.276;2023-06-10T10:15:35;6.73;;;5.73;;
18544;SDS011;9402;51.460;7.276;2023-06-10T10:17:40;13.17;;;5.40;;
18544;SDS011;9402;51.460;7.276;2023-06-10T10:19:48;9.00;;;6.10;;
18544;SDS011;9402;51.460;7.276;2023-06-10T10:21:52;7.17;;;4.97;;
18544;SDS011;9402;51.460;7.276;2023-06-10T10:23:57;6.23;;;5.10;;
18544;SDS011;9402;51.460;7.276;2023-06-10T10:26:03;8.90;;;5.53;;
18544;SDS011;9402;51.460;7.276;2023-06-10T10:28:07;8.60;;;4.90;;
18544;SDS011;9402;51.460;7.276;2023-06-10T10:30:10;12.40;;;5.20;;
18544;SDS011;9402;51.460;7.276;2023-06-10T10:32:13;8.70;;;5.63;;
18544;SDS011;9402;51.460;7.276;2023-06-10T10:34:15;12.80;;;5.53;;
18544;SDS011;9402;51.460;7.276;2023-06-10T10:36:19;9.53;;;5.40;;
18544;SDS011;9402;51.460;7.276;2023-06-10T10:38:20;15.63;;;6.40;;
18544;SDS011;9402;51.460;7.276;2023-06-10T10:40:23;9.90;;;5.00;;
18544;SDS011;9402;51.460;7.276;2023-06-10T10:42:26;10.67;;;5.67;;
18544;SDS011;9402;51.460;7.276;2023-06-10T10:44:28;12.30;;;5.30;;
18544;SDS011;9402;51.460;7.276;2023-06-10T10:46:29;14.13;;;4.90;;
18544;SDS011;9402;51.460;7.276;2023-06-10T10:48:33;7.10;;;6.27;;
18544;SDS011;9402;51.460;7.276;2023-06-10T10:50:38;8.53;;;5.20;;
18544;SDS011;9402;51.460;7.276;2023-06-10T10:52:53;9.87;;;5.47;;
18544;SDS011;9402;51.460;7.276;2023-06-10T10:54:56;6.63;;;4.50;;
18544;SDS011;9402;51.460;7.276;2023-06-10T10:57:10;12.30;;;5.60;;
18544;SDS011;9402;51.460;7.276;2023-06-10T10:59:13;9.97;;;5.47;;
18544;SDS011;9402;51.460;7.276;2023-06-10T11:01:18;7.13;;;5.43;;
18544;SDS011;9402;51.460;7.276;2023-06-10T11:03:19;6.80;;;5.10;;
18544;SDS011;9402;51.460;7.276;2023-06-10T11:05:30;6.97;;;5.13;;
18544;SDS011;9402;51.460;7.276;2023-06-10T11:07:34;7.10;;;5.27;;
18544;SDS011;9402;51.460;7.276;2023-06-10T11:09:37;8.13;;;6.10;;
18544;SDS011;9402;51.460;7.276;2023-06-10T11:11:40;14.03;;;5.77;;
18544;SDS011;9402;51.460;7.276;2023-06-10T11:14:06;7.60;;;6.00;;
18544;SDS011;9402;51.460;7.276;2023-06-10T11:16:09;6.37;;;5.67;;
18544;SDS011;9402;51.460;7.276;2023-06-10T11:18:12;7.87;;;6.17;;
18544;SDS011;9402;51.460;7.276;2023-06-10T11:22:58;8.97;;;6.00;;
18544;SDS011;9402;51.460;7.276;2023-06-10T11:25:01;6.73;;;5.20;;
18544;SDS011;9402;51.460;7.276;2023-06-10T11:27:15;6.50;;;5.70;;
18544;SDS011;9402;51.460;7.276;2023-06-10T11:29:18;7.23;;;5.50;;
18544;SDS011;9402;51.460;7.276;2023-06-10T11:31:21;11.07;;;5.30;;
18544;SDS011;9402;51.460;7.276;2023-06-10T11:33:22;7.83;;;4.80;;
18544;SDS011;9402;51.460;7.276;2023-06-10T11:35:25;10.20;;;6.20;;
18544;SDS011;9402;51.460;7.276;2023-06-10T11:37:27;5.50;;;4.97;;
18544;SDS011;9402;51.460;7.276;2023-06-10T11:39:29;11.23;;;5.63;;
18544;SDS011;9402;51.460;7.276;2023-06-10T11:41:32;8.00;;;5.17;;
18544;SDS011;9402;51.460;7.276;2023-06-10T11:43:34;7.27;;;5.93;;
18544;SDS011;9402;51.460;7.276;2023-06-10T11:45:36;6.60;;;5.67;;
18544;SDS011;9402;51.460;7.276;2023-06-10T11:47:37;8.77;;;5.40;;
18544;SDS011;9402;51.460;7.276;2023-06-10T11:49:39;6.37;;;5.77;;
18544;SDS011;9402;51.460;7.276;2023-06-10T11:51:40;7.23;;;5.30;;
18544;SDS011;9402;51.460;7.276;2023-06-10T11:53:49;8.03;;;5.47;;
18544;SDS011;9402;51.460;7.276;2023-06-10T11:55:51;10.90;;;5.40;;
18544;SDS011;9402;51.460;7.276;2023-06-10T11:57:54;7.43;;;5.50;;
18544;SDS011;9402;51.460;7.276;2023-06-10T12:00:03;9.33;;;5.57;;
18544;SDS011;9402;51.460;7.276;2023-06-10T12:02:06;7.47;;;5.90;;
18544;SDS011;9402;51.460;7.276;2023-06-10T12:04:16;9.23;;;4.87;;
18544;SDS011;9402;51.460;7.276;2023-06-10T12:06:19;7.00;;;5.57;;
18544;SDS011;9402;51.460;7.276;2023-06-10T12:08:20;10.30;;;5.80;;
18544;SDS011;9402;51.460;7.276;2023-06-10T12:10:22;7.27;;;5.50;;
18544;SDS011;9402;51.460;7.276;2023-06-10T12:12:23;9.73;;;5.37;;
18544;SDS011;9402;51.460;7.276;2023-06-10T12:16:56;11.33;;;5.87;;
18544;SDS011;9402;51.460;7.276;2023-06-10T12:19:01;6.77;;;5.43;;
18544;SDS011;9402;51.460;7.276;2023-06-10T12:21:03;6.80;;;5.50;;
18544;SDS011;9402;51.460;7.276;2023-06-10T12:23:17;7.63;;;5.40;;
18544;SDS011;9402;51.460;7.276;2023-06-10T12:25:24;6.40;;;5.43;;